createdAt,value
2018-06-19T00:00:44.209Z,17.35
2018-06-19T00:03:13.173Z,17.32
2018-06-19T00:05:42.256Z,17.36
2018-06-19T00:08:11.360Z,17.36
2018-06-19T00:10:40.372Z,17.42
2018-06-19T00:13:09.355Z,17.46
2018-06-19T00:15:38.316Z,17.46
2018-06-19T00:18:11.917Z,17.40
2018-06-19T00:20:40.938Z,17.34
2018-06-19T00:23:09.997Z,17.34
2018-06-19T00:25:38.984Z,17.37
2018-06-19T00:28:07.951Z,17.45
2018-06-19T00:30:36.908Z,17.50
2018-06-19T00:33:05.885Z,17.53
2018-06-19T00:35:34.901Z,17.53
2018-06-19T00:38:03.861Z,17.53
2018-06-19T00:40:32.829Z,17.55
2018-06-19T00:43:01.800Z,17.67
2018-06-19T00:45:30.840Z,17.73
2018-06-19T00:47:59.902Z,17.72
2018-06-19T00:50:28.970Z,17.71
2018-06-19T00:52:58.047Z,17.74
2018-06-19T00:55:27.111Z,17.74
2018-06-19T00:57:56.105Z,17.76
2018-06-19T01:00:25.073Z,17.78
2018-06-19T01:02:54.041Z,17.78
2018-06-19T01:05:23.058Z,17.76
2018-06-19T01:07:52.328Z,17.73
2018-06-19T01:10:21.329Z,17.66
2018-06-19T01:12:50.378Z,17.61
2018-06-19T01:15:19.381Z,17.52
2018-06-19T01:17:48.368Z,17.58
2018-06-19T01:20:17.500Z,17.55
2018-06-19T01:22:46.503Z,17.60
2018-06-19T01:25:16.331Z,17.66
2018-06-19T01:27:45.353Z,17.72
2018-06-19T01:30:14.308Z,17.77
2018-06-19T01:32:43.333Z,17.77
2018-06-19T01:35:12.320Z,17.77
2018-06-19T01:37:41.302Z,17.73
2018-06-19T01:40:10.264Z,17.74
2018-06-19T01:42:39.257Z,17.78
2018-06-19T01:45:08.221Z,17.78
2018-06-19T01:47:37.261Z,17.70
2018-06-19T01:50:06.233Z,17.61
2018-06-19T01:52:35.224Z,17.52
2018-06-19T01:55:04.250Z,17.47
2018-06-19T01:57:33.235Z,17.45
2018-06-19T02:00:02.314Z,17.43
2018-06-19T02:02:31.406Z,17.44
2018-06-19T02:05:00.468Z,17.42
2018-06-19T02:07:29.499Z,17.41
2018-06-19T02:09:58.516Z,17.42
2018-06-19T02:12:27.525Z,17.39
2018-06-19T02:14:56.598Z,17.37
2018-06-19T02:17:25.669Z,17.39
2018-06-19T02:19:54.648Z,17.46
2018-06-19T02:22:23.636Z,17.46
2018-06-19T02:24:52.620Z,17.42
2018-06-19T02:27:21.584Z,17.37
2018-06-19T02:29:50.606Z,17.37
2018-06-19T02:32:19.629Z,17.28
2018-06-19T02:34:48.673Z,17.27
2018-06-19T02:37:17.637Z,17.25
2018-06-19T02:39:46.630Z,17.25
2018-06-19T02:42:15.678Z,17.24
2018-06-19T02:44:44.706Z,17.23
2018-06-19T02:47:13.732Z,17.28
2018-06-19T02:49:42.744Z,17.28
2018-06-19T02:52:11.945Z,17.29
2018-06-19T02:54:40.993Z,17.27
2018-06-19T02:57:10.009Z,17.29
2018-06-19T02:59:38.986Z,17.34
2018-06-19T03:02:07.993Z,17.33
2018-06-19T03:04:36.972Z,17.28
2018-06-19T03:07:05.978Z,17.37
2018-06-19T03:09:34.985Z,17.21
2018-06-19T03:12:04.024Z,17.35
2018-06-19T03:14:33.110Z,17.33
2018-06-19T03:17:02.153Z,17.34
2018-06-19T03:19:31.112Z,17.37
2018-06-19T03:22:00.253Z,17.49
2018-06-19T03:24:29.356Z,17.56
2018-06-19T03:26:58.340Z,17.72
2018-06-19T03:29:27.309Z,17.77
2018-06-19T03:31:56.346Z,17.70
2018-06-19T03:34:25.488Z,17.76
2018-06-19T03:36:54.532Z,17.87
2018-06-19T03:39:23.566Z,18.01
2018-06-19T03:41:52.532Z,18.01
2018-06-19T03:44:21.492Z,18.09
2018-06-19T03:46:50.459Z,17.98
2018-06-19T03:49:19.546Z,18.09
2018-06-19T03:51:48.565Z,18.11
2018-06-19T03:54:17.509Z,18.13
2018-06-19T03:56:46.596Z,18.14
2018-06-19T03:59:15.649Z,18.07
2018-06-19T04:01:44.689Z,18.06
2018-06-19T04:04:13.668Z,17.95
2018-06-19T04:06:42.762Z,18.01
2018-06-19T04:09:11.743Z,18.12
2018-06-19T04:11:40.712Z,18.14
2018-06-19T04:14:09.724Z,18.00
2018-06-19T04:16:38.781Z,18.06
2018-06-19T04:19:07.855Z,18.15
2018-06-19T04:21:36.831Z,18.25
2018-06-19T04:24:05.862Z,18.36
2018-06-19T04:26:35.881Z,18.48
2018-06-19T04:29:04.937Z,18.58
2018-06-19T04:31:33.977Z,18.76
2018-06-19T04:34:02.978Z,18.87
2018-06-19T04:36:31.945Z,19.09
2018-06-19T04:39:00.899Z,19.30
2018-06-19T04:41:29.917Z,19.71
2018-06-19T04:43:58.880Z,20.54
2018-06-19T04:46:27.854Z,22.40
2018-06-19T04:48:56.800Z,23.70
2018-06-19T04:51:25.774Z,25.51
2018-06-19T04:53:54.732Z,27.58
2018-06-19T04:56:23.826Z,29.49
2018-06-19T04:58:52.840Z,31.01
2018-06-19T05:01:21.861Z,31.97
2018-06-19T05:03:50.977Z,32.01
2018-06-19T05:06:20.017Z,32.15
2018-06-19T05:08:49.017Z,32.20
2018-06-19T05:11:18.110Z,32.34
2018-06-19T05:13:47.053Z,33.08
2018-06-19T05:16:16.119Z,33.51
2018-06-19T05:18:45.190Z,34.05
2018-06-19T05:21:14.216Z,34.63
2018-06-19T05:23:43.236Z,34.22
2018-06-19T05:26:12.297Z,34.78
2018-06-19T05:28:41.369Z,34.95
2018-06-19T05:31:10.324Z,34.78
2018-06-19T05:33:39.323Z,35.31
2018-06-19T05:36:08.293Z,35.94
2018-06-19T05:38:37.264Z,36.64
2018-06-19T05:41:06.237Z,37.48
2018-06-19T05:43:35.237Z,37.40
2018-06-19T05:46:04.364Z,37.04
2018-06-19T05:48:33.323Z,36.79
2018-06-19T05:51:02.340Z,36.36
2018-06-19T05:53:31.363Z,36.79
2018-06-19T05:56:00.444Z,36.86
2018-06-19T05:58:29.549Z,37.04
2018-06-19T06:00:58.607Z,36.70
2018-06-19T06:03:27.606Z,36.29
2018-06-19T06:05:56.713Z,36.60
2018-06-19T06:08:25.668Z,36.35
2018-06-19T06:10:54.689Z,36.53
2018-06-19T06:13:23.843Z,36.95
2018-06-19T06:15:52.868Z,37.20
2018-06-19T06:18:21.905Z,37.60
2018-06-19T06:20:50.921Z,36.96
2018-06-19T06:23:19.924Z,37.72
2018-06-19T06:25:48.893Z,38.45
2018-06-19T06:28:17.983Z,38.72
2018-06-19T06:30:47.017Z,37.45
2018-06-19T06:33:16.076Z,37.00
2018-06-19T06:35:45.145Z,36.93
2018-06-19T06:38:14.159Z,37.73
2018-06-19T06:40:43.156Z,37.57
2018-06-19T06:43:12.169Z,37.04
2018-06-19T06:45:41.218Z,37.25
2018-06-19T06:48:10.237Z,37.49
2018-06-19T06:50:39.293Z,36.20
2018-06-19T06:53:08.328Z,36.06
2018-06-19T06:55:37.301Z,34.63
2018-06-19T06:58:06.443Z,33.51
2018-06-19T07:00:35.500Z,32.02
2018-06-19T07:03:04.452Z,30.95
2018-06-19T07:05:33.397Z,30.30
2018-06-19T07:08:02.407Z,29.70
2018-06-19T07:10:31.364Z,29.67
2018-06-19T07:13:00.316Z,29.75
2018-06-19T07:15:29.281Z,29.32
2018-06-19T07:17:58.256Z,28.59
2018-06-19T07:20:27.200Z,28.22
2018-06-19T07:22:56.326Z,27.94
2018-06-19T07:25:25.366Z,27.82
2018-06-19T07:27:54.373Z,27.74
2018-06-19T07:30:23.368Z,28.18
2018-06-19T07:32:52.358Z,28.52
2018-06-19T07:35:21.457Z,28.28
2018-06-19T07:37:50.522Z,27.98
2018-06-19T07:40:19.491Z,28.69
2018-06-19T07:42:48.534Z,30.45
2018-06-19T07:45:17.562Z,30.94
2018-06-19T07:47:46.508Z,30.51
2018-06-19T07:50:15.610Z,29.98
2018-06-19T07:52:44.576Z,29.32
2018-06-19T07:55:13.540Z,28.88
2018-06-19T07:57:42.488Z,28.86
2018-06-19T08:00:11.505Z,29.56
2018-06-19T08:02:40.502Z,29.49
2018-06-19T08:05:09.481Z,29.52
2018-06-19T08:07:38.481Z,29.24
2018-06-19T08:10:07.516Z,29.46
2018-06-19T08:12:36.519Z,29.74
2018-06-19T08:15:05.613Z,29.62
2018-06-19T08:17:34.578Z,29.47
2018-06-19T08:20:03.658Z,29.18
2018-06-19T08:22:32.736Z,28.88
2018-06-19T08:25:01.780Z,29.01
2018-06-19T08:27:30.748Z,29.36
2018-06-19T08:29:59.765Z,29.98
2018-06-19T08:32:28.775Z,30.17
2018-06-19T08:34:57.781Z,30.60
2018-06-19T08:37:27.394Z,30.72
2018-06-19T08:39:56.650Z,30.33
2018-06-19T08:42:25.738Z,29.97
2018-06-19T08:44:54.704Z,29.67
2018-06-19T08:47:23.673Z,29.80
2018-06-19T08:49:52.631Z,29.85
2018-06-19T08:52:21.617Z,30.06
2018-06-19T08:54:50.568Z,30.48
2018-06-19T08:57:19.623Z,30.59
2018-06-19T08:59:48.641Z,30.51
2018-06-19T09:02:17.730Z,30.55
2018-06-19T09:04:46.773Z,30.55
2018-06-19T09:07:15.831Z,30.44
2018-06-19T09:09:44.867Z,29.89
2018-06-19T09:12:13.832Z,30.31
2018-06-19T09:14:42.849Z,30.56
2018-06-19T09:17:11.949Z,30.23
2018-06-19T09:19:41.015Z,30.20
2018-06-19T09:22:10.035Z,30.19
2018-06-19T09:24:39.057Z,29.96
2018-06-19T09:27:08.108Z,30.13
2018-06-19T09:29:37.110Z,30.63
2018-06-19T09:32:06.224Z,30.76
2018-06-19T09:34:35.256Z,30.96
2018-06-19T09:37:04.313Z,31.42
2018-06-19T09:39:33.288Z,31.65
2018-06-19T09:42:02.317Z,31.80
2018-06-19T09:44:31.349Z,31.84
2018-06-19T09:47:00.392Z,32.43
2018-06-19T09:49:29.465Z,32.45
2018-06-19T09:51:58.517Z,32.53
2018-06-19T09:54:27.568Z,32.65
2018-06-19T09:56:56.592Z,32.85
2018-06-19T09:59:25.564Z,32.87
2018-06-19T10:01:54.625Z,33.01
2018-06-19T10:04:23.585Z,33.30
2018-06-19T10:06:52.612Z,33.38
2018-06-19T10:09:21.641Z,33.65
2018-06-19T10:11:50.687Z,33.89
2018-06-19T10:14:19.684Z,33.62
2018-06-19T10:16:48.661Z,34.10
2018-06-19T10:19:17.685Z,34.26
2018-06-19T10:21:46.684Z,34.79
2018-06-19T10:24:15.701Z,35.13
2018-06-19T10:26:44.733Z,35.26
2018-06-19T10:29:13.737Z,35.76
2018-06-19T10:31:42.714Z,35.98
2018-06-19T10:34:11.668Z,36.44
2018-06-19T10:36:40.612Z,36.28
2018-06-19T10:39:10.908Z,36.18
2018-06-19T10:41:39.922Z,36.16
2018-06-19T10:44:08.933Z,36.34
2018-06-19T10:46:37.960Z,35.94
2018-06-19T10:49:07.140Z,35.54
2018-06-19T10:51:36.192Z,35.38
2018-06-19T10:54:05.188Z,35.60
2018-06-19T10:56:34.188Z,36.42
2018-06-19T10:59:03.183Z,36.67
2018-06-19T11:01:32.241Z,36.71
2018-06-19T11:04:01.213Z,36.60
2018-06-19T11:06:30.312Z,36.58
2018-06-19T11:08:59.275Z,35.63
2018-06-19T11:11:28.212Z,35.65
2018-06-19T11:13:57.328Z,35.70
2018-06-19T11:16:26.291Z,35.40
2018-06-19T11:18:55.251Z,35.63
2018-06-19T11:21:24.198Z,35.54
2018-06-19T11:23:53.307Z,35.30
2018-06-19T11:26:22.344Z,34.85
2018-06-19T11:28:51.324Z,34.08
2018-06-19T11:31:20.376Z,33.73
2018-06-19T11:33:49.406Z,33.56
2018-06-19T11:36:18.423Z,33.78
2018-06-19T11:38:47.523Z,34.18
2018-06-19T11:41:16.539Z,34.92
2018-06-19T11:43:45.480Z,36.13
2018-06-19T11:46:14.501Z,37.15
2018-06-19T11:48:43.452Z,37.73
2018-06-19T11:51:12.408Z,38.26
2018-06-19T11:53:41.405Z,38.01
2018-06-19T11:56:10.433Z,38.32
2018-06-19T11:58:39.428Z,38.82
2018-06-19T12:01:08.569Z,38.70
2018-06-19T12:03:37.528Z,39.16
2018-06-19T12:06:06.520Z,38.91
2018-06-19T12:08:35.551Z,39.04
2018-06-19T12:11:04.681Z,38.79
2018-06-19T12:13:33.698Z,39.45
2018-06-19T12:16:02.786Z,39.97
2018-06-19T12:18:31.732Z,39.38
2018-06-19T12:21:00.737Z,39.12
2018-06-19T12:23:29.810Z,38.69
2018-06-19T12:25:58.760Z,39.04
2018-06-19T12:28:28.159Z,39.44
2018-06-19T12:30:57.221Z,39.93
2018-06-19T12:33:26.171Z,39.46
2018-06-19T12:35:55.252Z,38.11
2018-06-19T12:38:24.260Z,38.74
2018-06-19T12:40:53.332Z,39.01
2018-06-19T12:43:22.377Z,40.03
2018-06-19T12:45:51.418Z,39.25
2018-06-19T12:48:20.465Z,39.96
2018-06-19T12:51:59.273Z,40.58
2018-06-19T12:55:09.729Z,40.29
2018-06-19T12:57:38.668Z,39.56
2018-06-19T13:00:07.593Z,39.94
2018-06-19T13:02:36.605Z,39.88
2018-06-19T13:05:16.660Z,39.84
2018-06-19T13:07:45.664Z,38.57
2018-06-19T13:10:14.948Z,37.74
2018-06-19T13:13:28.549Z,36.96
2018-06-19T13:15:57.838Z,36.17
2018-06-19T13:18:39.025Z,35.47
2018-06-19T13:21:07.984Z,35.13
2018-06-19T13:23:37.088Z,34.73
2018-06-19T13:26:05.980Z,34.22
2018-06-19T13:29:59.244Z,33.67
2018-06-19T13:32:28.473Z,33.05
2018-06-19T13:34:57.548Z,33.47
2018-06-19T13:37:26.554Z,34.91
2018-06-19T13:41:15.469Z,36.39
2018-06-19T13:43:55.680Z,36.92
2018-06-19T13:46:24.708Z,36.84
2018-06-19T13:48:53.724Z,37.39
2018-06-19T13:51:22.687Z,36.66
2018-06-19T13:53:51.624Z,35.37
2018-06-19T13:57:33.513Z,34.75
2018-06-19T14:00:03.935Z,33.68
2018-06-19T14:02:32.925Z,33.31
2018-06-19T14:05:02.384Z,33.11
2018-06-19T14:07:33.111Z,32.85
2018-06-19T14:10:20.090Z,32.73
2018-06-19T14:12:51.144Z,32.64
2018-06-19T14:15:21.258Z,32.62
2018-06-19T14:17:50.320Z,32.47
2018-06-19T14:20:19.318Z,32.26
2018-06-19T14:22:48.328Z,32.30
2018-06-19T14:25:17.923Z,32.26
2018-06-19T14:27:46.995Z,32.35
2018-06-19T14:30:15.979Z,32.38
2018-06-19T14:32:45.741Z,32.54
2018-06-19T14:35:14.875Z,32.55
2018-06-19T14:37:44.102Z,32.39
2018-06-19T14:40:13.511Z,32.47
2018-06-19T14:42:42.480Z,32.16
2018-06-19T14:45:11.899Z,32.15
2018-06-19T14:47:41.324Z,31.87
2018-06-19T14:50:10.337Z,31.72
2018-06-19T14:52:39.316Z,31.43
2018-06-19T14:55:09.284Z,31.30
2018-06-19T14:57:38.464Z,31.03
2018-06-19T15:00:08.605Z,30.86
2018-06-19T15:02:37.551Z,30.69
2018-06-19T15:05:06.787Z,30.58
2018-06-19T15:07:38.481Z,30.50
2018-06-19T15:10:08.901Z,30.34
2018-06-19T15:12:38.032Z,30.11
2018-06-19T15:15:07.052Z,30.14
2018-06-19T15:17:36.060Z,30.31
2018-06-19T15:20:05.248Z,30.32
2018-06-19T15:22:34.266Z,30.29
2018-06-19T15:25:03.335Z,30.25
2018-06-19T15:27:32.364Z,30.19
2018-06-19T15:30:01.383Z,30.24
2018-06-19T15:32:30.500Z,30.19
2018-06-19T15:34:59.649Z,30.18
2018-06-19T15:37:28.664Z,30.14
2018-06-19T15:39:57.619Z,30.10
2018-06-19T15:42:26.550Z,30.00
2018-06-19T15:44:55.546Z,29.95
2018-06-19T15:47:24.572Z,29.84
2018-06-19T15:49:53.644Z,29.87
2018-06-19T15:52:22.689Z,29.71
2018-06-19T15:54:51.639Z,29.71
2018-06-19T15:57:20.660Z,29.55
2018-06-19T15:59:49.611Z,29.56
2018-06-19T16:02:18.659Z,29.48
2018-06-19T16:04:47.604Z,29.46
2018-06-19T16:07:16.596Z,29.31
2018-06-19T16:09:45.661Z,29.24
2018-06-19T16:12:14.597Z,29.21
2018-06-19T16:14:43.558Z,29.15
2018-06-19T16:17:12.671Z,29.08
2018-06-19T16:19:41.700Z,29.02
2018-06-19T16:22:10.675Z,28.90
2018-06-19T16:24:39.704Z,28.79
2018-06-19T16:27:08.661Z,28.68
2018-06-19T16:29:37.666Z,28.57
2018-06-19T16:32:06.713Z,28.43
2018-06-19T16:34:35.819Z,28.24
2018-06-19T16:37:04.784Z,28.10
2018-06-19T16:39:33.852Z,27.97
2018-06-19T16:42:02.943Z,27.92
2018-06-19T16:44:31.920Z,27.84
2018-06-19T16:47:00.879Z,27.67
2018-06-19T16:49:29.882Z,27.56
2018-06-19T16:51:58.977Z,27.46
2018-06-19T16:54:28.029Z,27.28
2018-06-19T16:56:56.984Z,27.17
2018-06-19T16:59:26.013Z,27.12
2018-06-19T17:01:55.112Z,27.03
2018-06-19T17:04:24.273Z,26.89
2018-06-19T17:06:53.276Z,26.77
2018-06-19T17:09:22.269Z,26.59
2018-06-19T17:11:51.331Z,26.49
2018-06-19T17:14:20.272Z,26.41
2018-06-19T17:16:49.325Z,26.34
2018-06-19T17:19:19.077Z,26.23
2018-06-19T17:21:48.032Z,26.12
2018-06-19T17:24:17.105Z,26.04
2018-06-19T17:26:46.672Z,25.92
2018-06-19T17:29:15.727Z,25.81
2018-06-19T17:31:44.785Z,25.64
2018-06-19T17:34:13.781Z,25.53
2018-06-19T17:36:42.909Z,25.40
2018-06-19T17:39:12.461Z,25.25
2018-06-19T17:41:41.456Z,25.14
2018-06-19T17:44:10.411Z,24.99
2018-06-19T17:46:39.368Z,24.84
2018-06-19T17:49:08.388Z,24.70
2018-06-19T17:51:37.392Z,24.56
2018-06-19T17:54:06.521Z,24.42
2018-06-19T17:56:35.589Z,24.29
2018-06-19T17:59:04.674Z,24.17
2018-06-19T18:01:33.757Z,24.01
2018-06-19T18:04:02.796Z,23.89
2018-06-19T18:06:31.812Z,23.77
2018-06-19T18:09:00.882Z,23.65
2018-06-19T18:11:29.912Z,23.53
2018-06-19T18:13:58.891Z,23.58
2018-06-19T18:16:27.840Z,23.60
2018-06-19T18:18:56.918Z,23.55
2018-06-19T18:21:26.011Z,23.53
2018-06-19T18:23:55.151Z,23.55
2018-06-19T18:26:24.192Z,23.59
2018-06-19T18:28:53.252Z,23.57
2018-06-19T18:31:22.296Z,23.55
2018-06-19T18:33:51.341Z,23.51
2018-06-19T18:36:20.425Z,23.47
2018-06-19T18:38:49.411Z,23.40
2018-06-19T18:41:18.524Z,23.33
2018-06-19T18:43:47.515Z,23.26
2018-06-19T18:46:16.540Z,23.20
2018-06-19T18:48:45.571Z,23.15
2018-06-19T18:51:14.627Z,23.05
2018-06-19T18:53:43.768Z,22.99
2018-06-19T18:56:12.828Z,22.90
2018-06-19T18:58:41.912Z,22.84
2018-06-19T19:01:11.002Z,22.76
2018-06-19T19:03:40.044Z,22.68
2018-06-19T19:06:09.041Z,22.66
2018-06-19T19:08:38.083Z,22.56
2018-06-19T19:11:07.098Z,22.47
2018-06-19T19:13:36.125Z,22.43
2018-06-19T19:16:10.056Z,22.37
2018-06-19T19:18:43.959Z,22.32
2018-06-19T19:21:13.009Z,22.27
2018-06-19T19:23:42.172Z,22.20
2018-06-19T19:26:11.892Z,22.17
2018-06-19T19:28:46.009Z,22.17
2018-06-19T19:31:14.996Z,22.17
2018-06-19T19:33:44.005Z,22.13
2018-06-19T19:36:18.119Z,22.11
2018-06-19T19:38:52.170Z,22.10
2018-06-19T19:41:21.296Z,22.04
2018-06-19T19:43:50.294Z,21.98
2018-06-19T19:46:24.220Z,21.90
2018-06-19T19:48:57.260Z,21.73
2018-06-19T19:51:27.402Z,21.71
2018-06-19T19:53:56.433Z,21.74
2018-06-19T19:56:30.524Z,21.73
2018-06-19T19:58:59.522Z,21.68
2018-06-19T20:01:28.532Z,21.65
2018-06-19T20:03:57.512Z,21.59
2018-06-19T20:06:26.527Z,21.59
2018-06-19T20:08:55.603Z,21.60
2018-06-19T20:11:24.649Z,21.70
2018-06-19T20:13:53.636Z,21.71
2018-06-19T20:16:22.649Z,21.73
2018-06-19T20:18:51.599Z,21.75
2018-06-19T20:21:20.564Z,21.74
2018-06-19T20:23:49.822Z,21.73
2018-06-19T20:26:18.764Z,21.73
2018-06-19T20:28:47.702Z,21.73
2018-06-19T20:31:16.720Z,21.73
2018-06-19T20:33:45.659Z,21.70
2018-06-19T20:36:14.609Z,21.68
2018-06-19T20:38:43.608Z,21.63
2018-06-19T20:41:12.563Z,21.61
2018-06-19T20:43:41.560Z,21.58
2018-06-19T20:46:10.630Z,21.59
2018-06-19T20:48:39.685Z,21.60
2018-06-19T20:51:08.660Z,21.64
2018-06-19T20:53:37.624Z,21.66
2018-06-19T20:56:06.625Z,21.68
2018-06-19T20:58:35.602Z,21.67
2018-06-19T21:01:04.532Z,21.63
2018-06-19T21:03:33.488Z,21.57
2018-06-19T21:06:02.423Z,21.48
2018-06-19T21:08:36.432Z,21.39
2018-06-19T21:11:05.548Z,21.27
2018-06-19T21:13:34.511Z,21.21
2018-06-19T21:16:03.641Z,21.12
2018-06-19T21:18:32.657Z,21.02
2018-06-19T21:21:01.637Z,20.94
2018-06-19T21:23:30.592Z,20.92
2018-06-19T21:25:59.670Z,20.86
2018-06-19T21:28:28.677Z,20.77
2018-06-19T21:30:57.685Z,20.73
2018-06-19T21:33:26.686Z,20.70
2018-06-19T21:35:55.676Z,20.59
2018-06-19T21:38:24.640Z,20.59
2018-06-19T21:40:53.693Z,20.57
2018-06-19T21:43:22.649Z,20.55
2018-06-19T21:45:51.635Z,20.49
2018-06-19T21:48:20.595Z,20.46
2018-06-19T21:50:49.542Z,20.44
2018-06-19T21:53:18.608Z,20.43
2018-06-19T21:55:47.600Z,20.39
2018-06-19T21:58:16.560Z,20.34
2018-06-19T22:00:45.665Z,20.28
2018-06-19T22:03:14.644Z,20.22
2018-06-19T22:05:43.704Z,20.17
2018-06-19T22:08:12.651Z,20.09
2018-06-19T22:10:41.586Z,20.05
2018-06-19T22:13:10.525Z,19.99
2018-06-19T22:15:39.497Z,19.93
2018-06-19T22:18:08.447Z,19.81
2018-06-19T22:20:37.425Z,18.85
2018-06-19T22:23:07.262Z,19.78
2018-06-19T22:25:36.282Z,19.76
2018-06-19T22:28:05.296Z,19.74
2018-06-19T22:30:34.317Z,19.66
2018-06-19T22:33:03.393Z,19.59
2018-06-19T22:35:32.373Z,19.51
2018-06-19T22:38:01.312Z,19.44
2018-06-19T22:40:30.272Z,19.48
2018-06-19T22:42:59.215Z,19.47
2018-06-19T22:45:28.276Z,19.45
2018-06-19T22:47:57.253Z,19.47
2018-06-19T22:50:26.210Z,19.30
2018-06-19T22:52:55.209Z,19.22
2018-06-19T22:55:24.272Z,19.13
2018-06-19T22:57:53.260Z,19.12
2018-06-19T23:00:23.780Z,19.10
2018-06-19T23:02:54.804Z,19.10
2018-06-19T23:05:23.805Z,19.05
2018-06-19T23:07:52.752Z,19.06
2018-06-19T23:10:21.753Z,19.05
2018-06-19T23:12:50.688Z,19.05
2018-06-19T23:15:19.719Z,19.00
2018-06-19T23:17:48.869Z,19.00
2018-06-19T23:20:17.825Z,18.99
2018-06-19T23:22:49.003Z,18.94
2018-06-19T23:25:18.328Z,18.90
2018-06-19T23:27:47.279Z,18.83
2018-06-19T23:30:17.137Z,18.79
2018-06-19T23:32:46.224Z,18.79
2018-06-19T23:35:15.272Z,18.76
2018-06-19T23:37:44.236Z,18.71
2018-06-19T23:40:13.252Z,18.66
2018-06-19T23:42:42.245Z,18.62
2018-06-19T23:45:11.265Z,18.54
2018-06-19T23:47:40.254Z,18.49
2018-06-19T23:50:09.333Z,18.49
2018-06-19T23:52:38.384Z,18.47
2018-06-19T23:55:07.356Z,18.46
2018-06-19T23:57:36.300Z,18.43
